Time;durP1;ratioP1;P1;durP2;ratioP2;P2;SDS_P1;SDS_P2;PMS_P1;PMS_P2;Temp;Humidity;BMP_temperature;BMP_pressure;BME280_temperature;BME280_humidity;BME280_pressure;Samples;Min_cycle;Max_cycle;Signal;HPM_P1;HPM_P2
2021/04/14 00:01:41;;;;;;;10.53;9.53;;;;;;;6.81;78.79;98969.95;1725248;82;20956;-58
2021/04/14 00:04:08;;;;;;;14.13;12.68;;;;;;;6.78;78.87;98972.08;1713824;82;21373;-57
2021/04/14 00:06:36;;;;;;;16.10;14.50;;;;;;;6.75;79.02;98970.58;1713926;82;21037;-57
2021/04/14 00:09:06;;;;;;;17.02;12.45;;;;;;;6.74;79.25;98965.46;1713835;82;21072;-57
2021/04/14 00:11:33;;;;;;;11.95;10.85;;;;;;;6.74;79.36;98964.97;1708916;82;21087;-58
2021/04/14 00:14:00;;;;;;;10.28;9.28;;;;;;;6.69;79.40;98959.82;1697219;82;21065;-56
2021/04/14 00:16:29;;;;;;;9.55;8.48;;;;;;;6.65;79.66;98965.91;1712052;82;21349;-55
2021/04/14 00:18:57;;;;;;;12.45;8.70;;;;;;;6.65;79.82;98963.75;1691157;82;21615;-58
2021/04/14 00:21:26;;;;;;;9.05;7.97;;;;;;;6.65;79.91;98961.94;1697609;82;21176;-57
2021/04/14 00:23:54;;;;;;;9.58;8.70;;;;;;;6.63;80.05;98956.48;1714867;82;21146;-59
2021/04/14 00:26:39;;;;;;;9.33;8.43;;;;;;;6.62;80.17;98954.33;1700219;82;21579;-57
2021/04/14 00:29:09;;;;;;;10.55;9.30;;;;;;;6.63;80.16;98952.03;1711795;82;21376;-56
2021/04/14 00:31:38;;;;;;;10.03;9.03;;;;;;;6.66;80.15;98944.27;1701565;82;21150;-56
2021/04/14 00:34:12;;;;;;;9.78;8.85;;;;;;;6.68;80.20;98935.69;1704825;82;21176;-56
2021/04/14 00:36:42;;;;;;;9.75;8.53;;;;;;;6.69;80.12;98942.64;1696427;82;21125;-55
2021/04/14 00:39:14;;;;;;;10.55;8.25;;;;;;;6.68;80.16;98933.87;1691193;82;21137;-57
2021/04/14 00:41:43;;;;;;;9.38;8.48;;;;;;;6.69;80.14;98931.58;1722384;82;21440;-58
2021/04/14 00:44:11;;;;;;;10.15;9.08;;;;;;;6.65;80.26;98934.67;1705909;82;21132;-57
2021/04/14 00:46:39;;;;;;;9.80;8.80;;;;;;;6.63;80.29;98933.52;1726241;82;21576;-59
2021/04/14 00:49:07;;;;;;;10.98;9.68;;;;;;;6.64;80.25;98937.00;1691039;82;21132;-57
2021/04/14 00:51:35;;;;;;;10.72;9.63;;;;;;;6.63;80.34;98936.66;1710784;82;21185;-59
2021/04/14 00:54:04;;;;;;;9.83;8.80;;;;;;;6.62;80.59;98938.47;1691451;82;21925;-56
2021/04/14 00:56:31;;;;;;;9.68;8.68;;;;;;;6.59;80.74;98934.01;1691070;82;21172;-59
2021/04/14 00:58:59;;;;;;;11.88;9.23;;;;;;;6.60;80.81;98939.61;1704616;82;21172;-57
2021/04/14 01:01:26;;;;;;;10.43;9.43;;;;;;;6.62;80.82;98935.82;1698202;82;21140;-56
2021/04/14 01:03:55;;;;;;;10.15;8.98;;;;;;;6.65;80.81;98932.87;1711929;82;21119;-56
2021/04/14 01:06:26;;;;;;;11.73;9.15;;;;;;;6.62;80.78;98928.41;1704549;82;22259;-57
2021/04/14 01:08:54;;;;;;;10.32;9.33;;;;;;;6.60;80.88;98930.36;1697258;82;21144;-56
2021/04/14 01:11:23;;;;;;;10.13;9.10;;;;;;;6.57;81.00;98927.54;1694088;82;21065;-56
2021/04/14 01:13:51;;;;;;;10.85;9.85;;;;;;;6.54;81.35;98927.88;1701450;82;21065;-57
2021/04/14 01:16:18;;;;;;;9.50;8.50;;;;;;;6.50;81.43;98932.30;1718843;82;21183;-59
2021/04/14 01:18:47;;;;;;;10.85;8.93;;;;;;;6.52;81.65;98929.00;1704933;82;21012;-58
2021/04/14 01:21:39;;;;;;;10.72;9.63;;;;;;;6.52;81.72;98929.83;1699837;82;21057;-58
2021/04/14 01:24:10;;;;;;;10.40;9.40;;;;;;;6.50;81.75;98926.52;1704138;82;21134;-58
2021/04/14 01:26:38;;;;;;;11.53;9.33;;;;;;;6.51;81.77;98922.08;1691071;82;21156;-56
2021/04/14 01:29:07;;;;;;;11.78;9.98;;;;;;;6.52;81.87;98922.39;1691149;82;21200;-56
2021/04/14 01:31:36;;;;;;;9.83;8.88;;;;;;;6.55;81.87;98916.80;1691129;82;21101;-58
2021/04/14 01:34:12;;;;;;;12.43;9.08;;;;;;;6.57;81.92;98918.30;1691000;82;21219;-57
2021/04/14 01:36:40;;;;;;;10.58;9.58;;;;;;;6.59;81.86;98922.11;1694716;82;21591;-60
2021/04/14 01:39:10;;;;;;;10.05;9.15;;;;;;;6.58;81.87;98912.52;1707613;82;21148;-56
2021/04/14 01:41:38;;;;;;;10.25;9.25;;;;;;;6.60;81.83;98918.47;1691164;82;21219;-56
2021/04/14 01:44:10;;;;;;;10.82;9.60;;;;;;;6.61;81.83;98913.53;1708286;82;22033;-55
2021/04/14 01:46:42;;;;;;;11.95;9.53;;;;;;;6.61;81.81;98905.11;1703911;82;21160;-55
2021/04/14 01:49:11;;;;;;;10.18;9.18;;;;;;;6.64;81.78;98910.57;1709575;82;21119;-56
2021/04/14 01:51:39;;;;;;;11.78;10.60;;;;;;;6.66;81.75;98912.06;1701379;82;21200;-56
2021/04/14 01:54:10;;;;;;;10.18;9.08;;;;;;;6.68;81.71;98902.64;1706088;82;21595;-58
2021/04/14 01:56:39;;;;;;;9.03;8.20;;;;;;;6.71;81.58;98903.16;1696459;82;22295;-56
2021/04/14 01:59:10;;;;;;;11.48;8.80;;;;;;;6.69;81.62;98903.83;1695096;82;21021;-56
2021/04/14 02:01:40;;;;;;;10.82;8.98;;;;;;;6.69;81.66;98902.98;1696928;82;21671;-56
2021/04/14 02:04:09;;;;;;;10.63;9.43;;;;;;;6.67;81.71;98903.65;1691097;82;21029;-57
2021/04/14 02:06:37;;;;;;;11.68;10.25;;;;;;;6.62;81.83;98902.78;1691057;82;21190;-57
2021/04/14 02:09:07;;;;;;;11.73;10.58;;;;;;;6.61;82.01;98900.31;1722192;82;21187;-56
2021/04/14 02:11:34;;;;;;;12.47;10.30;;;;;;;6.60;82.19;98903.45;1699747;83;21036;-58
2021/04/14 02:14:02;;;;;;;15.13;9.40;;;;;;;6.63;82.26;98900.48;1699656;83;21482;-56
2021/04/14 02:16:29;;;;;;;10.25;9.25;;;;;;;6.65;82.24;98898.99;1726062;83;21071;-56
2021/04/14 02:18:57;;;;;;;10.40;9.33;;;;;;;6.67;82.27;98901.01;1726191;83;21012;-56
2021/04/14 02:21:25;;;;;;;10.88;9.80;;;;;;;6.69;82.17;98892.42;1726152;83;21355;-55
2021/04/14 02:23:53;;;;;;;11.70;10.53;;;;;;;6.67;82.08;98893.88;1726042;83;21766;-59
2021/04/14 02:26:22;;;;;;;12.10;10.38;;;;;;;6.68;82.10;98892.07;1726136;83;20929;-56
2021/04/14 02:28:49;;;;;;;12.05;9.85;;;;;;;6.67;82.12;98894.40;1710945;83;21112;-57
2021/04/14 02:31:30;;;;;;;12.28;10.15;;;;;;;6.67;82.23;98893.08;1726223;83;21123;-58
2021/04/14 02:34:04;;;;;;;11.83;9.43;;;;;;;6.70;82.26;98894.09;1726228;83;21204;-56
2021/04/14 02:36:32;;;;;;;10.78;9.68;;;;;;;6.76;82.19;98890.78;1724264;83;21068;-57
2021/04/14 02:39:01;;;;;;;12.82;9.60;;;;;;;6.77;82.03;98885.35;1708373;83;21071;-57
2021/04/14 02:41:29;;;;;;;12.58;9.35;;;;;;;6.75;82.00;98887.30;1726023;83;21119;-56
2021/04/14 02:43:57;;;;;;;12.23;9.13;;;;;;;6.75;82.02;98887.30;1726138;83;21143;-58
2021/04/14 02:46:25;;;;;;;14.75;10.45;;;;;;;6.77;82.06;98888.48;1726023;83;21364;-56
2021/04/14 02:48:53;;;;;;;11.50;10.30;;;;;;;6.77;82.09;98887.16;1726043;83;21052;-57
2021/04/14 02:51:21;;;;;;;10.82;9.73;;;;;;;6.78;82.02;98880.87;1726063;83;21016;-55
2021/04/14 02:53:48;;;;;;;11.33;9.93;;;;;;;6.78;82.09;98876.41;1726094;83;21057;-56
2021/04/14 02:56:16;;;;;;;13.00;10.65;;;;;;;6.83;82.08;98874.59;1710926;83;21148;-56
2021/04/14 02:58:46;;;;;;;10.32;9.25;;;;;;;6.87;81.97;98868.02;1726183;83;21448;-56
2021/04/14 03:01:15;;;;;;;11.10;9.53;;;;;;;6.87;81.81;98869.34;1710895;83;21013;-56
2021/04/14 03:03:42;;;;;;;12.80;10.45;;;;;;;6.84;81.83;98870.98;1726044;83;21119;-58
2021/04/14 03:06:11;;;;;;;11.90;10.32;;;;;;;6.81;81.93;98865.52;1726079;83;21075;-57
2021/04/14 03:08:39;;;;;;;11.65;10.45;;;;;;;6.77;82.04;98863.37;1726194;83;21142;-59
2021/04/14 03:11:08;;;;;;;12.58;10.03;;;;;;;6.77;82.21;98859.41;1689433;83;21450;-56
2021/04/14 03:13:37;;;;;;;11.57;10.32;;;;;;;6.73;82.33;98861.53;1700807;83;21034;-57
2021/04/14 03:16:06;;;;;;;12.88;9.30;;;;;;;6.70;82.45;98859.72;1715499;82;21015;-56
2021/04/14 03:18:34;;;;;;;10.05;9.03;;;;;;;6.68;82.51;98859.86;1690995;82;21034;-56
2021/04/14 03:21:01;;;;;;;14.20;10.55;;;;;;;6.67;82.65;98858.20;1691122;82;21112;-56
2021/04/14 03:23:29;;;;;;;11.68;10.45;;;;;;;6.65;82.75;98858.02;1691028;82;22012;-59
2021/04/14 03:25:57;;;;;;;11.25;10.05;;;;;;;6.63;82.86;98852.08;1690999;82;20986;-57
2021/04/14 03:28:25;;;;;;;10.45;9.25;;;;;;;6.61;82.96;98856.22;1694225;82;21050;-56
2021/04/14 03:30:52;;;;;;;12.03;9.80;;;;;;;6.61;83.08;98857.53;1697884;82;21510;-57
2021/04/14 03:33:19;;;;;;;11.43;10.23;;;;;;;6.61;83.16;98852.73;1722372;82;21030;-58
2021/04/14 03:35:47;;;;;;;11.48;10.18;;;;;;;6.61;83.24;98853.58;1691214;82;21441;-56
2021/04/14 03:38:15;;;;;;;11.28;10.08;;;;;;;6.61;83.33;98856.22;1691219;82;21049;-59
2021/04/14 03:40:42;;;;;;;10.35;9.20;;;;;;;6.62;83.38;98859.70;1691268;82;21068;-56
2021/04/14 03:43:10;;;;;;;12.85;10.20;;;;;;;6.62;83.34;98859.17;1701475;82;21077;-56
2021/04/14 03:45:45;;;;;;;11.60;10.40;;;;;;;6.62;83.36;98858.37;1701490;82;21025;-57
2021/04/14 03:48:13;;;;;;;11.97;10.68;;;;;;;6.67;83.49;98861.36;1691469;82;21436;-58
2021/04/14 03:50:40;;;;;;;10.95;9.85;;;;;;;6.73;83.30;98862.02;1722204;82;21582;-57
2021/04/14 03:53:24;;;;;;;12.50;9.90;;;;;;;6.75;83.14;98852.94;1708929;82;21253;-57
2021/04/14 03:56:04;;;;;;;11.40;10.23;;;;;;;6.79;83.09;98849.48;1711900;82;21203;-58
2021/04/14 03:58:33;;;;;;;14.15;11.18;;;;;;;6.83;82.95;98850.80;1711916;82;21131;-57
2021/04/14 04:01:04;;;;;;;12.88;11.55;;;;;;;6.83;82.75;98850.80;1701323;82;21369;-56
2021/04/14 04:03:32;;;;;;;13.03;10.68;;;;;;;6.84;82.73;98853.80;1730287;82;21176;-59
2021/04/14 04:06:01;;;;;;;13.78;10.75;;;;;;;6.83;82.74;98850.80;1722099;82;21088;-59
2021/04/14 04:08:29;;;;;;;14.40;10.55;;;;;;;6.82;82.75;98848.68;1705797;82;21145;-56
2021/04/14 04:10:57;;;;;;;12.93;9.40;;;;;;;6.87;82.75;98856.13;1718041;82;21152;-56
2021/04/14 04:13:28;;;;;;;11.75;9.65;;;;;;;6.88;82.64;98853.82;1707926;82;21222;-56
2021/04/14 04:15:56;;;;;;;10.98;9.73;;;;;;;6.92;82.54;98856.46;1708006;82;21136;-57
2021/04/14 04:18:23;;;;;;;10.75;9.65;;;;;;;6.92;82.41;98855.14;1723396;82;21127;-59
2021/04/14 04:20:52;;;;;;;11.73;10.50;;;;;;;6.92;82.28;98853.81;1655493;85;21219;-57
2021/04/14 04:23:19;;;;;;;12.25;10.70;;;;;;;6.90;82.24;98855.80;1700685;82;21518;-57
2021/04/14 04:25:49;;;;;;;13.53;10.82;;;;;;;6.89;82.33;98853.30;1713791;82;21075;-57
2021/04/14 04:28:19;;;;;;;12.20;10.28;;;;;;;6.88;82.35;98852.50;1709846;82;21120;-55
2021/04/14 04:30:46;;;;;;;12.00;10.35;;;;;;;6.91;82.44;98852.15;1728883;82;21552;-58
2021/04/14 04:33:14;;;;;;;10.18;9.00;;;;;;;6.95;82.41;98852.17;1711600;82;21010;-57
2021/04/14 04:35:42;;;;;;;11.68;9.78;;;;;;;7.00;82.30;98853.00;1701328;82;21101;-57
2021/04/14 04:38:10;;;;;;;10.10;9.05;;;;;;;7.03;82.13;98850.87;1721914;82;21346;-59
2021/04/14 04:40:38;;;;;;;11.10;10.00;;;;;;;7.06;81.94;98855.84;1722867;82;21133;-59
2021/04/14 04:43:09;;;;;;;11.45;9.00;;;;;;;7.09;81.80;98859.98;1707105;82;21159;-59
2021/04/14 04:45:37;;;;;;;11.88;8.90;;;;;;;7.10;81.70;98853.19;1709426;82;21112;-57
2021/04/14 04:48:09;;;;;;;12.73;10.43;;;;;;;7.13;81.64;98853.35;1651227;86;20997;-60
2021/04/14 04:50:37;;;;;;;12.60;9.68;;;;;;;7.14;81.48;98859.82;1718632;82;21380;-57
2021/04/14 04:53:07;;;;;;;10.78;9.23;;;;;;;7.16;81.46;98859.16;1726678;82;21027;-57
2021/04/14 04:55:35;;;;;;;11.90;8.90;;;;;;;7.20;81.31;98867.08;1713516;82;22456;-57
2021/04/14 04:58:04;;;;;;;12.10;9.95;;;;;;;7.23;81.20;98861.95;1729009;81;21089;-56
2021/04/14 05:00:33;;;;;;;10.08;8.98;;;;;;;7.23;81.01;98863.28;1708050;82;21188;-60
2021/04/14 05:03:02;;;;;;;10.82;9.03;;;;;;;7.21;81.06;98858.66;1719063;82;21495;-60
2021/04/14 05:05:36;;;;;;;10.50;8.40;;;;;;;7.20;81.05;98855.18;1699772;83;21155;-58
2021/04/14 05:08:06;;;;;;;12.25;9.03;;;;;;;7.21;81.09;98857.33;1718392;82;21052;-56
2021/04/14 05:10:36;;;;;;;9.15;8.23;;;;;;;7.23;81.03;98861.95;1724236;82;21197;-57
2021/04/14 05:13:04;;;;;;;9.30;8.15;;;;;;;7.24;81.07;98864.45;1723020;82;21069;-57
2021/04/14 05:15:35;;;;;;;9.95;8.88;;;;;;;7.30;80.96;98866.42;1736063;82;21354;-56
2021/04/14 05:18:02;;;;;;;11.83;9.00;;;;;;;7.36;80.84;98864.45;1736325;82;20986;-56
2021/04/14 05:20:30;;;;;;;16.65;8.30;;;;;;;7.41;80.48;98866.59;1735372;82;21193;-57
2021/04/14 05:22:58;;;;;;;13.00;8.80;;;;;;;7.44;80.14;98864.95;1719379;82;20997;-59
2021/04/14 05:25:30;;;;;;;12.25;9.03;;;;;;;7.45;79.96;98872.74;1719397;82;21488;-58
2021/04/14 05:28:03;;;;;;;11.60;8.50;;;;;;;7.45;79.74;98866.13;1719428;82;21442;-56
2021/04/14 05:30:28;;;;;;;12.78;8.43;;;;;;;7.47;79.63;98861.98;1719130;82;21619;-57
2021/04/14 05:32:56;;;;;;;10.78;7.75;;;;;;;7.48;79.39;98865.77;1719408;82;21043;-57
2021/04/14 05:35:23;;;;;;;10.65;9.13;;;;;;;7.50;79.33;98866.12;1719409;82;21098;-58
2021/04/14 05:37:51;;;;;;;10.28;8.25;;;;;;;7.51;79.29;98858.52;1737791;82;21064;-56
2021/04/14 05:40:19;;;;;;;12.35;8.80;;;;;;;7.50;79.20;98852.39;1737978;82;21393;-57
2021/04/14 05:42:47;;;;;;;12.75;8.73;;;;;;;7.48;79.18;98849.89;1727559;82;21172;-57
2021/04/14 05:45:24;;;;;;;9.20;8.23;;;;;;;7.51;79.05;98851.38;1722128;82;21564;-57
2021/04/14 05:47:52;;;;;;;12.18;8.95;;;;;;;7.52;78.92;98853.05;1727688;82;21439;-57
2021/04/14 05:50:24;;;;;;;14.63;8.88;;;;;;;7.50;78.84;98844.94;1719423;82;21120;-56
2021/04/14 05:52:52;;;;;;;8.50;7.45;;;;;;;7.50;78.93;98850.23;1719548;82;22393;-56
2021/04/14 05:55:20;;;;;;;9.38;7.70;;;;;;;7.52;78.85;98848.23;1731830;82;21557;-59
2021/04/14 05:57:48;;;;;;;9.35;7.87;;;;;;;7.53;78.74;98852.55;1719413;82;20976;-58
2021/04/14 06:00:17;;;;;;;21.23;9.33;;;;;;;7.53;78.75;98843.29;1719398;82;21185;-58
2021/04/14 06:02:44;;;;;;;15.53;10.28;;;;;;;7.53;78.75;98849.91;1719446;82;20983;-56
2021/04/14 06:05:15;;;;;;;11.68;9.13;;;;;;;7.56;78.75;98847.73;1719419;82;21276;-58
2021/04/14 06:07:43;;;;;;;11.12;8.30;;;;;;;7.63;78.75;98846.59;1719384;82;21084;-60
2021/04/14 06:10:12;;;;;;;10.10;7.87;;;;;;;7.69;78.46;98843.28;1719336;82;21173;-59
2021/04/14 06:12:40;;;;;;;14.53;7.95;;;;;;;7.76;78.32;98841.13;1736191;80;21629;-59
2021/04/14 06:15:13;;;;;;;10.72;7.87;;;;;;;7.84;78.01;98841.60;1741268;80;21159;-57
2021/04/14 06:17:42;;;;;;;12.28;8.75;;;;;;;7.93;77.83;98843.22;1758928;80;22105;-56
2021/04/14 06:20:13;;;;;;;13.00;8.23;;;;;;;7.98;77.33;98835.59;1739801;80;21515;-57
2021/04/14 06:22:42;;;;;;;11.73;7.72;;;;;;;8.01;77.02;98840.06;1737789;81;21116;-60
2021/04/14 06:25:14;;;;;;;12.73;8.50;;;;;;;8.02;76.90;98836.92;1744096;81;21120;-58
2021/04/14 06:30:11;;;;;;;8.58;6.95;;;;;;;8.07;76.72;98836.75;1740988;81;21205;-58
2021/04/14 06:32:38;;;;;;;13.10;7.75;;;;;;;8.11;76.72;98834.57;1738843;81;21012;-56
2021/04/14 06:35:08;;;;;;;15.95;8.90;;;;;;;8.17;76.40;98832.58;1739405;81;21255;-57
2021/04/14 06:37:36;;;;;;;12.13;8.48;;;;;;;8.18;76.21;98832.08;1739117;81;21206;-56
2021/04/14 06:43:17;;;;;;;9.43;7.87;;;;;;;8.27;75.78;98829.25;1747758;81;21391;-55
2021/04/14 06:45:50;;;;;;;12.23;7.83;;;;;;;8.25;75.69;98830.39;1725387;81;21037;-56
2021/04/14 06:48:38;;;;;;;9.78;8.55;;;;;;;8.29;75.76;98830.43;1739181;81;21123;-56
2021/04/14 06:51:25;;;;;;;11.63;8.90;;;;;;;8.31;75.62;98833.23;1719362;83;21127;-55
2021/04/14 06:54:11;;;;;;;9.13;7.67;;;;;;;8.33;75.54;98834.37;1732919;81;21257;-55
2021/04/14 06:56:39;;;;;;;9.15;8.08;;;;;;;8.36;75.52;98822.94;1748090;81;21279;-56
2021/04/14 06:59:12;;;;;;;16.37;8.35;;;;;;;8.38;75.33;98831.54;1739971;81;21206;-56
2021/04/14 07:01:48;;;;;;;11.10;8.80;;;;;;;8.36;75.29;98834.03;1735124;81;21042;-56
2021/04/14 07:04:35;;;;;;;11.43;8.25;;;;;;;8.36;75.39;98828.24;1739398;81;21613;-56
2021/04/14 07:07:05;;;;;;;12.85;8.18;;;;;;;8.42;75.33;98832.03;1739296;81;20918;-57
2021/04/14 07:09:37;;;;;;;12.30;9.38;;;;;;;8.46;75.14;98830.67;1728477;81;21479;-58
2021/04/14 07:12:09;;;;;;;16.30;10.08;;;;;;;8.44;75.07;98832.19;1735396;81;21057;-56
2021/04/14 07:14:36;;;;;;;10.63;7.85;;;;;;;8.46;75.07;98828.86;1723190;82;21112;-55
2021/04/14 07:17:30;;;;;;;12.18;8.55;;;;;;;8.44;74.98;98825.56;1748983;82;21160;-56
2021/04/14 07:20:19;;;;;;;13.55;9.83;;;;;;;8.43;75.14;98829.20;1720636;82;21146;-56
2021/04/14 07:23:02;;;;;;;11.93;9.55;;;;;;;8.52;75.15;98833.48;1700078;82;21375;-55
2021/04/14 07:25:44;;;;;;;11.63;8.85;;;;;;;8.62;74.89;98831.44;1719003;82;21059;-58
2021/04/14 07:28:53;;;;;;;11.60;9.58;;;;;;;8.66;74.67;98835.37;1716534;82;21002;-58
2021/04/14 07:31:44;;;;;;;10.85;8.73;;;;;;;8.66;74.51;98837.20;1731519;82;21160;-57
2021/04/14 07:34:36;;;;;;;14.45;9.40;;;;;;;8.68;74.35;98837.88;1734216;82;21569;-56
2021/04/14 07:37:17;;;;;;;12.37;8.95;;;;;;;8.71;74.29;98828.75;1719464;81;22283;-57
2021/04/14 07:40:08;;;;;;;9.58;8.55;;;;;;;8.73;74.31;98833.38;1719029;82;21038;-56
2021/04/14 07:42:44;;;;;;;9.58;7.55;;;;;;;8.77;74.08;98828.03;1732829;82;21068;-56
2021/04/14 07:45:25;;;;;;;9.43;8.53;;;;;;;8.82;74.19;98829.66;1724159;82;21149;-57
2021/04/14 07:47:56;;;;;;;14.90;9.18;;;;;;;8.93;73.80;98825.29;1719206;82;21181;-56
2021/04/14 07:50:41;;;;;;;13.10;10.50;;;;;;;8.96;73.46;98831.58;1719118;82;22330;-56
2021/04/14 07:53:37;;;;;;;11.33;9.50;;;;;;;8.96;73.28;98836.38;1718707;82;21188;-59
2021/04/14 07:56:20;;;;;;;14.73;10.73;;;;;;;9.04;73.30;98836.83;1725757;82;21728;-59
2021/04/14 07:58:54;;;;;;;12.85;9.30;;;;;;;9.10;72.89;98836.11;1722015;82;21165;-56
2021/04/14 08:01:24;;;;;;;10.72;8.78;;;;;;;9.14;72.81;98839.58;1716346;82;21131;-56
2021/04/14 08:03:52;;;;;;;11.83;8.60;;;;;;;9.20;72.33;98837.52;1719219;82;22234;-55
2021/04/14 08:06:28;;;;;;;11.57;9.08;;;;;;;9.23;72.17;98836.34;1719158;82;20982;-56
2021/04/14 08:08:56;;;;;;;9.93;8.68;;;;;;;9.33;72.04;98832.14;1731786;82;21268;-56
2021/04/14 08:11:30;;;;;;;10.45;9.20;;;;;;;9.39;71.71;98825.61;1719079;82;21076;-58
2021/04/14 08:14:24;;;;;;;10.48;9.50;;;;;;;9.44;71.54;98821.91;1721943;82;21154;-57
2021/04/14 08:16:53;;;;;;;12.98;9.83;;;;;;;9.55;71.26;98829.95;1720319;81;21387;-55
2021/04/14 08:19:27;;;;;;;13.08;10.05;;;;;;;9.64;70.96;98825.74;1726423;81;21026;-57
2021/04/14 08:22:14;;;;;;;11.88;8.93;;;;;;;9.73;70.60;98825.14;1726805;81;21070;-60
2021/04/14 08:24:54;;;;;;;11.08;9.40;;;;;;;9.81;70.33;98821.91;1692008;83;21180;-57
2021/04/14 08:27:33;;;;;;;11.65;10.10;;;;;;;9.89;70.00;98819.18;1689333;83;21105;-57
2021/04/14 08:30:06;;;;;;;13.25;9.83;;;;;;;9.99;69.84;98816.74;1687796;83;21209;-56
2021/04/14 08:32:44;;;;;;;12.53;10.38;;;;;;;10.11;69.58;98817.46;1698065;83;21066;-56
2021/04/14 08:35:42;;;;;;;12.88;11.48;;;;;;;10.24;69.01;98812.86;1712371;83;21113;-56
2021/04/14 08:38:15;;;;;;;11.88;10.55;;;;;;;10.34;68.46;98814.23;1716275;83;21178;-55
2021/04/14 08:40:57;;;;;;;14.60;11.28;;;;;;;10.46;68.25;98810.08;1717563;83;21107;-56
2021/04/14 08:43:41;;;;;;;12.85;11.28;;;;;;;10.48;67.77;98811.24;1714890;83;21668;-56
2021/04/14 08:46:13;;;;;;;13.28;10.50;;;;;;;10.51;67.82;98809.52;1708705;83;22280;-57
2021/04/14 08:48:45;;;;;;;12.63;10.30;;;;;;;10.57;67.55;98814.10;1698134;83;21128;-59
2021/04/14 08:51:13;;;;;;;11.55;9.83;;;;;;;10.58;67.23;98811.77;1695020;83;21149;-58
2021/04/14 08:53:43;;;;;;;14.07;10.90;;;;;;;10.61;67.27;98815.36;1698146;83;21209;-58
2021/04/14 08:56:11;;;;;;;12.78;9.83;;;;;;;10.67;66.97;98811.97;1695128;83;22294;-61
2021/04/14 08:58:40;;;;;;;15.35;10.28;;;;;;;10.70;66.74;98808.94;1697009;83;21027;-57
2021/04/14 09:01:12;;;;;;;13.03;10.23;;;;;;;10.68;66.70;98806.14;1695615;83;21186;-58
2021/04/14 09:03:41;;;;;;;10.80;9.05;;;;;;;10.73;66.63;98804.58;1708963;83;21106;-58
2021/04/14 09:06:10;;;;;;;14.78;10.05;;;;;;;10.79;66.35;98805.67;1716336;83;21139;-56
2021/04/14 09:08:46;;;;;;;12.63;10.55;;;;;;;10.82;66.28;98798.11;1685978;84;21783;-58
2021/04/14 09:11:28;;;;;;;11.97;10.13;;;;;;;10.91;66.16;98797.00;1694985;83;21197;-56
2021/04/14 09:14:23;;;;;;;11.53;9.93;;;;;;;11.00;66.02;98791.06;1657657;83;21566;-59
2021/04/14 09:16:56;;;;;;;13.10;10.15;;;;;;;11.12;65.82;98794.35;1685805;84;21162;-58
2021/04/14 09:19:35;;;;;;;10.82;9.43;;;;;;;11.29;65.31;98787.45;1666603;85;21265;-57
2021/04/14 09:22:15;;;;;;;10.25;9.20;;;;;;;11.33;64.64;98779.38;1659650;85;21386;-59
2021/04/14 09:24:47;;;;;;;12.47;9.48;;;;;;;11.38;64.58;98779.63;1659576;85;21847;-58
2021/04/14 09:27:36;;;;;;;11.18;9.00;;;;;;;11.44;64.38;98778.86;1699236;82;21172;-58
2021/04/14 09:30:40;;;;;;;10.70;8.90;;;;;;;11.53;63.85;98773.70;1717951;81;20969;-60
2021/04/14 09:33:14;;;;;;;11.35;9.78;;;;;;;11.63;63.55;98775.02;1704299;81;21136;-56
2021/04/14 09:35:55;;;;;;;10.60;9.45;;;;;;;11.76;63.09;98768.48;1726924;82;20954;-57
2021/04/14 09:38:37;;;;;;;13.00;9.08;;;;;;;11.78;62.90;98765.63;1697912;82;21283;-56
2021/04/14 09:41:28;;;;;;;8.85;7.90;;;;;;;11.82;62.77;98761.55;1706576;82;21154;-56
2021/04/14 09:44:17;;;;;;;10.55;9.25;;;;;;;11.91;62.41;98759.56;1710803;82;21155;-59
2021/04/14 09:46:57;;;;;;;9.75;8.50;;;;;;;11.95;62.09;98751.47;1691008;82;21172;-57
2021/04/14 09:49:40;;;;;;;11.65;8.68;;;;;;;11.96;62.03;98751.80;1714313;82;21260;-58
2021/04/14 09:52:24;;;;;;;15.08;9.98;;;;;;;12.00;62.00;98753.86;1696355;82;21056;-60
2021/04/14 09:54:54;;;;;;;11.73;9.65;;;;;;;12.03;61.60;98749.98;1702433;82;21183;-56
2021/04/14 09:57:29;;;;;;;14.53;10.05;;;;;;;12.03;61.72;98756.64;1670740;84;21025;-57
2021/04/14 09:59:58;;;;;;;12.37;10.08;;;;;;;12.04;61.43;98760.47;1671648;84;21136;-59
2021/04/14 10:02:28;;;;;;;12.85;10.40;;;;;;;11.99;61.49;98762.87;1666997;84;21217;-56
2021/04/14 10:04:55;;;;;;;12.20;10.05;;;;;;;12.01;61.59;98771.52;1666992;84;21280;-57
2021/04/14 10:07:31;;;;;;;12.47;9.48;;;;;;;12.11;61.46;98769.81;1667018;84;21081;-57
2021/04/14 10:10:08;;;;;;;37.33;24.52;;;;;;;12.17;61.10;98767.20;1676008;84;21074;-59
2021/04/14 10:12:36;;;;;;;18.02;11.90;;;;;;;12.16;60.95;98765.55;1703656;82;21156;-57
2021/04/14 10:15:07;;;;;;;20.30;11.43;;;;;;;12.18;61.00;98758.67;1703359;81;21005;-58
2021/04/14 10:17:35;;;;;;;18.65;9.75;;;;;;;12.23;61.11;98759.73;1725758;83;21115;-57
2021/04/14 10:20:18;;;;;;;13.90;9.60;;;;;;;12.32;60.64;98763.05;1725912;83;20917;-57
2021/04/14 10:22:48;;;;;;;11.53;9.33;;;;;;;12.31;60.58;98762.23;1725819;83;21653;-56
2021/04/14 10:25:31;;;;;;;10.78;8.40;;;;;;;12.27;60.62;98763.66;1710796;83;21211;-57
2021/04/14 10:28:16;;;;;;;9.18;7.12;;;;;;;12.34;60.66;98760.50;1725803;83;21370;-56
2021/04/14 10:30:46;;;;;;;8.30;7.33;;;;;;;12.42;60.42;98766.17;1710836;83;20933;-57
2021/04/14 10:33:21;;;;;;;12.07;8.10;;;;;;;12.45;60.02;98767.12;1725871;82;21159;-59
2021/04/14 10:35:50;;;;;;;16.10;9.25;;;;;;;12.44;59.94;98757.96;1710734;83;22167;-57
2021/04/14 10:38:33;;;;;;;9.13;8.18;;;;;;;12.45;60.11;98759.62;1697897;83;21162;-57
2021/04/14 10:41:00;;;;;;;12.43;8.35;;;;;;;12.54;59.99;98761.90;1710696;83;22352;-57
2021/04/14 10:43:28;;;;;;;9.88;8.30;;;;;;;12.55;59.77;98764.06;1729941;81;21092;-55
2021/04/14 10:46:32;;;;;;;9.28;8.33;;;;;;;12.58;59.84;98763.16;1710693;83;21017;-55
2021/04/14 10:49:05;;;;;;;24.60;8.95;;;;;;;12.61;59.50;98769.94;1725720;83;21133;-59
2021/04/14 10:51:42;;;;;;;10.85;7.83;;;;;;;12.52;59.36;98765.79;1710597;83;21076;-57
2021/04/14 10:54:11;;;;;;;10.60;8.85;;;;;;;12.47;59.63;98777.58;1725972;83;21194;-60
2021/04/14 10:56:39;;;;;;;10.65;8.83;;;;;;;12.40;59.79;98768.23;1725836;83;21175;-57
2021/04/14 10:59:15;;;;;;;11.18;8.40;;;;;;;12.34;59.78;98776.50;1718211;83;21209;-57
2021/04/14 11:01:46;;;;;;;12.58;9.35;;;;;;;12.25;59.93;98769.67;1697628;83;21728;-57
2021/04/14 11:04:22;;;;;;;14.38;10.08;;;;;;;12.15;60.08;98771.09;1725923;83;21106;-56
2021/04/14 11:06:53;;;;;;;14.30;9.25;;;;;;;12.08;60.33;98775.54;1725947;83;21375;-58
2021/04/14 11:09:22;;;;;;;10.63;9.53;;;;;;;11.99;60.62;98773.53;1725743;83;22236;-57
2021/04/14 11:11:50;;;;;;;15.08;11.08;;;;;;;11.94;60.95;98773.83;1714178;83;21217;-60
2021/04/14 11:14:19;;;;;;;18.50;12.60;;;;;;;11.91;62.05;98773.72;1714728;82;21143;-57
2021/04/14 11:16:48;;;;;;;21.62;15.10;;;;;;;11.89;61.63;98777.06;1720425;82;21031;-57
2021/04/14 11:19:22;;;;;;;19.70;14.07;;;;;;;11.91;61.48;98768.89;1720427;82;21503;-56
2021/04/14 11:22:09;;;;;;;15.70;12.68;;;;;;;11.87;61.41;98775.61;1710848;82;21109;-57
2021/04/14 11:24:49;;;;;;;20.10;13.78;;;;;;;11.79;61.37;98776.59;1693302;82;21705;-59
2021/04/14 11:27:25;;;;;;;15.48;12.47;;;;;;;11.68;61.60;98778.42;1728090;81;21233;-57
2021/04/14 11:29:52;;;;;;;17.27;13.18;;;;;;;11.61;61.89;98782.88;1721653;82;21203;-58
2021/04/14 11:32:23;;;;;;;19.42;13.25;;;;;;;11.62;62.03;98781.37;1650450;86;21222;-57
2021/04/14 11:35:01;;;;;;;18.92;14.60;;;;;;;11.65;62.00;98782.83;1684636;84;21576;-55
2021/04/14 11:37:39;;;;;;;17.62;13.25;;;;;;;11.64;62.04;98779.33;1674602;84;21181;-55
2021/04/14 11:40:23;;;;;;;20.48;14.10;;;;;;;11.61;62.19;98775.72;1720110;82;21027;-56
2021/04/14 11:42:59;;;;;;;21.77;14.50;;;;;;;11.60;62.18;98772.73;1703710;82;21128;-57
2021/04/14 11:45:35;;;;;;;;;;;;;;;11.56;62.27;98778.64;1734884;82;22277;-56
2021/04/14 11:48:15;;;;;;;17.92;13.43;;;;;;;11.57;62.51;98775.80;1708377;82;20522;-57
2021/04/14 11:50:44;;;;;;;16.73;14.45;;;;;;;11.60;62.43;98777.26;1714389;82;21074;-56
2021/04/14 11:53:25;;;;;;;17.35;15.28;;;;;;;11.63;62.33;98780.84;1707274;82;21140;-56
2021/04/14 11:55:53;;;;;;;25.77;16.57;;;;;;;11.65;62.41;98776.17;1671678;85;21231;-57
2021/04/14 11:58:41;;;;;;;23.10;16.40;;;;;;;11.59;62.32;98776.93;1666755;84;21397;-58
2021/04/14 12:01:24;;;;;;;21.12;15.45;;;;;;;11.49;62.52;98773.28;1666846;84;21085;-55